createdAt,value
2019-05-02T00:00:49.598Z,33.47
2019-05-02T00:03:18.048Z,35.03
2019-05-02T00:05:46.452Z,32.80
2019-05-02T00:08:14.830Z,33.00
2019-05-02T00:10:44.215Z,33.07
2019-05-02T00:13:12.668Z,34.47
2019-05-02T00:15:42.701Z,34.73
2019-05-02T00:18:11.177Z,37.93
2019-05-02T00:20:39.574Z,36.03
2019-05-02T00:23:08.022Z,38.07
2019-05-02T00:25:36.417Z,35.90
2019-05-02T00:28:07.773Z,36.47
2019-05-02T00:30:36.062Z,37.20
2019-05-02T00:33:04.578Z,36.83
2019-05-02T00:35:33.028Z,39.30
2019-05-02T00:38:02.444Z,38.93
2019-05-02T00:40:31.067Z,37.93
2019-05-02T00:42:59.643Z,39.77
2019-05-02T00:45:28.083Z,41.33
2019-05-02T00:48:07.016Z,41.47
2019-05-02T00:50:36.998Z,39.67
2019-05-02T00:53:07.275Z,38.80
2019-05-02T00:55:35.702Z,43.17
2019-05-02T00:58:04.402Z,37.73
2019-05-02T01:00:34.455Z,43.17
2019-05-02T01:03:03.400Z,41.90
2019-05-02T01:05:33.716Z,38.77
2019-05-02T01:08:02.982Z,43.73
2019-05-02T01:10:31.619Z,46.07
2019-05-02T01:13:00.085Z,42.33
2019-05-02T01:15:28.526Z,39.53
2019-05-02T01:18:00.986Z,42.00
2019-05-02T01:20:27.559Z,45.30
2019-05-02T01:22:57.048Z,44.60
2019-05-02T01:25:25.428Z,45.67
2019-05-02T01:28:17.732Z,47.07
2019-05-02T01:30:59.937Z,48.00
2019-05-02T01:33:29.979Z,47.30
2019-05-02T01:36:06.371Z,45.40
2019-05-02T01:38:37.501Z,46.43
2019-05-02T01:41:05.874Z,46.03
2019-05-02T01:43:34.279Z,48.73
2019-05-02T01:46:02.693Z,46.07
2019-05-02T01:48:31.062Z,49.87
2019-05-02T01:50:59.446Z,48.00
2019-05-02T01:53:29.329Z,48.33
2019-05-02T01:55:59.345Z,46.03
2019-05-02T01:58:27.868Z,50.63
2019-05-02T02:00:56.263Z,49.27
2019-05-02T02:03:24.707Z,52.07
2019-05-02T02:05:53.132Z,47.40
2019-05-02T02:08:21.494Z,49.90
2019-05-02T02:10:50.779Z,49.00
2019-05-02T02:13:19.914Z,49.20
2019-05-02T02:15:48.298Z,55.80
2019-05-02T02:18:22.245Z,57.17
2019-05-02T02:20:58.402Z,56.37
2019-05-02T02:23:49.643Z,58.13
2019-05-02T02:26:18.038Z,50.77
2019-05-02T02:28:46.421Z,50.03
2019-05-02T02:31:14.831Z,48.47
2019-05-02T02:33:48.100Z,53.00
2019-05-02T02:36:13.271Z,49.83
2019-05-02T02:38:41.642Z,51.03
2019-05-02T02:41:13.261Z,54.13
2019-05-02T02:43:40.099Z,48.83
2019-05-02T02:46:10.161Z,53.73
2019-05-02T02:48:40.482Z,53.37
2019-05-02T02:51:09.054Z,55.60
2019-05-02T02:53:37.450Z,53.57
2019-05-02T02:56:06.769Z,53.00
2019-05-02T02:58:44.302Z,53.33
2019-05-02T03:01:05.298Z,55.73
2019-05-02T03:03:35.419Z,51.73
2019-05-02T03:06:05.728Z,49.90
2019-05-02T03:08:45.123Z,51.07
2019-05-02T03:11:03.895Z,57.37
2019-05-02T03:13:52.488Z,54.63
2019-05-02T03:16:14.455Z,57.77
2019-05-02T03:18:43.268Z,58.60
2019-05-02T03:21:13.566Z,55.63
2019-05-02T03:23:41.971Z,59.27
2019-05-02T03:26:14.759Z,64.03
2019-05-02T03:28:40.407Z,62.57
2019-05-02T03:31:24.209Z,58.17
2019-05-02T03:33:51.363Z,59.07
2019-05-02T03:36:26.766Z,64.50
2019-05-02T03:38:38.898Z,66.87
2019-05-02T03:41:13.267Z,68.23
2019-05-02T03:43:37.482Z,67.50
2019-05-02T03:46:05.910Z,67.73
2019-05-02T03:48:34.313Z,69.53
2019-05-02T03:51:05.116Z,68.83
2019-05-02T03:53:32.780Z,65.87
2019-05-02T03:56:10.879Z,65.07
2019-05-02T03:58:31.863Z,63.50
2019-05-02T04:01:01.755Z,59.47
2019-05-02T04:03:33.932Z,63.97
2019-05-02T04:06:00.311Z,63.43
2019-05-02T04:08:29.557Z,64.07
2019-05-02T04:11:17.880Z,59.53
2019-05-02T04:13:46.302Z,67.27
2019-05-02T04:16:17.615Z,70.67
2019-05-02T04:18:54.626Z,69.03
2019-05-02T04:21:15.706Z,69.70
2019-05-02T04:23:44.694Z,65.60
2019-05-02T04:26:14.459Z,69.73
2019-05-02T04:28:45.579Z,62.73
2019-05-02T04:31:13.375Z,64.20
2019-05-02T04:33:41.795Z,65.20
2019-05-02T04:36:15.150Z,66.87
2019-05-02T04:38:47.458Z,66.03
2019-05-02T04:41:10.251Z,66.43
2019-05-02T04:43:43.121Z,61.23
2019-05-02T04:46:17.929Z,62.53
2019-05-02T04:48:43.788Z,62.87
2019-05-02T04:51:16.030Z,58.63
2019-05-02T04:53:44.405Z,68.80
2019-05-02T04:56:10.574Z,62.20
2019-05-02T04:58:40.599Z,62.87
2019-05-02T05:01:10.176Z,66.70
2019-05-02T05:03:38.820Z,58.83
2019-05-02T05:06:11.953Z,64.77
2019-05-02T05:08:38.827Z,61.47
2019-05-02T05:11:07.789Z,64.03
2019-05-02T05:13:37.435Z,68.13
2019-05-02T05:16:10.028Z,67.50
2019-05-02T05:18:37.803Z,68.03
2019-05-02T05:21:10.245Z,61.27
2019-05-02T05:23:43.801Z,67.00
2019-05-02T05:26:12.213Z,66.60
2019-05-02T05:28:44.376Z,69.93
2019-05-02T05:31:10.662Z,64.30
2019-05-02T05:33:39.071Z,66.00
2019-05-02T05:36:08.273Z,57.10
2019-05-02T05:38:40.417Z,63.73
2019-05-02T05:41:11.181Z,61.87
2019-05-02T05:43:38.163Z,62.30
2019-05-02T05:46:10.655Z,64.97
2019-05-02T05:48:40.642Z,59.33
2019-05-02T05:51:07.275Z,60.90
2019-05-02T05:53:37.488Z,65.27
2019-05-02T05:56:07.822Z,60.27
2019-05-02T05:58:39.852Z,61.93
2019-05-02T06:01:09.823Z,63.97
2019-05-02T06:03:41.858Z,59.70
2019-05-02T06:06:08.279Z,61.30
2019-05-02T06:08:36.415Z,62.27
2019-05-02T06:11:04.818Z,57.00
2019-05-02T06:13:33.222Z,60.37
2019-05-02T06:16:03.215Z,55.73
2019-05-02T06:18:36.189Z,56.70
2019-05-02T06:21:03.357Z,57.43
2019-05-02T06:23:36.391Z,56.47
2019-05-02T06:26:08.085Z,60.70
2019-05-02T06:28:36.177Z,59.40
2019-05-02T06:31:02.091Z,61.23
2019-05-02T06:33:32.352Z,60.60
2019-05-02T06:36:01.409Z,59.20
2019-05-02T06:38:30.850Z,58.73
2019-05-02T06:40:59.240Z,62.60
2019-05-02T06:43:27.636Z,64.67
2019-05-02T06:45:56.028Z,63.17
2019-05-02T06:48:24.414Z,63.10
2019-05-02T06:50:52.822Z,65.50
2019-05-02T06:53:21.238Z,64.23
2019-05-02T06:55:49.626Z,59.30
2019-05-02T06:58:18.047Z,66.03
2019-05-02T07:00:57.418Z,67.20
2019-05-02T07:03:16.562Z,65.23
2019-05-02T07:05:44.949Z,61.40
2019-05-02T07:08:14.086Z,64.70
2019-05-02T07:10:44.925Z,62.13
2019-05-02T07:13:15.597Z,67.37
2019-05-02T07:16:01.040Z,65.90
2019-05-02T07:18:31.033Z,74.10
2019-05-02T07:20:59.508Z,67.73
2019-05-02T07:23:27.923Z,67.37
2019-05-02T07:25:56.312Z,75.40
2019-05-02T07:28:24.727Z,74.37
2019-05-02T07:30:54.818Z,69.57
2019-05-02T07:33:23.317Z,70.70
2019-05-02T07:35:55.198Z,78.77
2019-05-02T07:38:25.566Z,74.10
2019-05-02T07:40:52.934Z,78.13
2019-05-02T07:43:22.383Z,77.27
2019-05-02T07:45:50.886Z,77.53
2019-05-02T07:48:19.277Z,80.10
2019-05-02T07:50:48.152Z,76.77
2019-05-02T07:53:16.774Z,77.00
2019-05-02T07:55:45.195Z,84.27
2019-05-02T07:58:13.608Z,84.53
2019-05-02T08:00:42.019Z,91.70
2019-05-02T08:03:10.428Z,83.90
2019-05-02T08:05:38.827Z,88.47
2019-05-02T08:08:07.293Z,96.37
2019-05-02T08:10:35.714Z,100.77
2019-05-02T08:13:04.118Z,95.37
2019-05-02T08:15:32.498Z,95.13
2019-05-02T08:18:00.922Z,95.50
2019-05-02T08:20:29.303Z,103.50
2019-05-02T08:22:57.770Z,107.30
2019-05-02T08:25:26.197Z,110.90
2019-05-02T08:28:00.320Z,117.23
2019-05-02T08:30:30.328Z,102.77
2019-05-02T08:32:58.726Z,109.90
2019-05-02T08:35:28.300Z,120.03
2019-05-02T08:37:56.919Z,117.87
2019-05-02T08:40:25.307Z,115.43
2019-05-02T08:42:53.734Z,126.03
2019-05-02T08:45:22.124Z,118.27
2019-05-02T08:47:50.581Z,116.10
2019-05-02T08:50:18.916Z,124.27
2019-05-02T08:52:48.126Z,124.90
2019-05-02T08:55:16.696Z,131.20
2019-05-02T08:57:45.111Z,138.20
2019-05-02T09:00:13.491Z,123.60
2019-05-02T09:02:42.233Z,134.07
2019-05-02T09:05:10.687Z,122.50
2019-05-02T09:07:40.089Z,118.33
2019-05-02T09:10:09.154Z,120.17
2019-05-02T09:12:42.057Z,114.73
2019-05-02T09:15:07.598Z,115.20
2019-05-02T09:17:38.696Z,111.57
2019-05-02T09:20:15.028Z,104.40
2019-05-02T09:22:38.819Z,107.87
2019-05-02T09:25:08.009Z,106.80
2019-05-02T09:27:36.404Z,105.87
2019-05-02T09:30:11.897Z,103.27
2019-05-02T09:32:41.722Z,97.40
2019-05-02T09:35:11.540Z,89.00
2019-05-02T09:37:41.697Z,92.87
2019-05-02T09:40:12.623Z,95.10
2019-05-02T09:42:39.865Z,91.20
2019-05-02T09:45:09.954Z,91.63
2019-05-02T09:47:55.313Z,94.47
2019-05-02T09:50:10.058Z,89.03
2019-05-02T09:52:39.686Z,81.43
2019-05-02T09:55:08.616Z,86.40
2019-05-02T09:57:37.091Z,86.33
2019-05-02T10:00:08.012Z,85.67
2019-05-02T10:02:36.404Z,88.47
2019-05-02T10:05:05.383Z,85.93
2019-05-02T10:07:33.775Z,80.57
2019-05-02T10:10:06.466Z,78.03
2019-05-02T10:12:32.585Z,86.20
2019-05-02T10:15:02.345Z,83.20
2019-05-02T10:17:32.199Z,84.80
2019-05-02T10:20:02.046Z,85.97
2019-05-02T10:22:32.212Z,88.20
2019-05-02T10:25:02.507Z,82.97
2019-05-02T10:27:32.277Z,76.87
2019-05-02T10:30:08.103Z,69.50
2019-05-02T10:32:32.482Z,73.40
2019-05-02T10:35:02.113Z,65.50
2019-05-02T10:37:38.050Z,60.97
2019-05-02T10:40:02.445Z,62.23
2019-05-02T10:42:32.511Z,68.07
2019-05-02T10:45:02.777Z,59.77
2019-05-02T10:47:33.090Z,58.67
2019-05-02T10:50:08.850Z,50.83
2019-05-02T10:52:37.244Z,49.23
2019-05-02T10:55:08.656Z,32.30
2019-05-02T10:57:37.050Z,26.00
2019-05-02T11:00:16.335Z,20.87
2019-05-02T11:02:55.325Z,15.57
2019-05-02T11:05:26.569Z,21.20
2019-05-02T11:07:56.832Z,22.40
2019-05-02T11:10:25.581Z,21.33
2019-05-02T11:13:04.663Z,24.93
2019-05-02T11:15:52.543Z,27.83
2019-05-02T11:18:38.795Z,35.07
2019-05-02T11:20:52.746Z,34.83
2019-05-02T11:23:22.081Z,37.83
2019-05-02T11:25:52.499Z,38.87
2019-05-02T11:28:22.007Z,40.97
2019-05-02T11:30:52.464Z,42.37
2019-05-02T11:33:22.873Z,42.13
2019-05-02T11:35:53.317Z,42.17
2019-05-02T11:38:45.258Z,39.97
2019-05-02T11:40:52.055Z,42.23
2019-05-02T11:43:22.326Z,43.83
2019-05-02T11:45:55.864Z,46.20
2019-05-02T11:48:22.456Z,47.77
2019-05-02T11:50:52.327Z,47.77
2019-05-02T11:53:29.019Z,54.37
2019-05-02T11:55:53.016Z,47.53
2019-05-02T11:58:23.000Z,53.77
2019-05-02T12:00:52.224Z,56.63
2019-05-02T12:03:22.606Z,53.83
2019-05-02T12:05:52.435Z,54.60
2019-05-02T12:08:22.598Z,55.43
2019-05-02T12:10:51.901Z,56.37
2019-05-02T12:13:22.514Z,62.60
2019-05-02T12:15:51.955Z,54.00
2019-05-02T12:18:22.938Z,58.07
2019-05-02T12:20:52.068Z,50.53
2019-05-02T12:23:22.476Z,43.77
2019-05-02T12:25:51.971Z,45.53
2019-05-02T12:28:22.753Z,43.47
2019-05-02T12:30:51.926Z,41.33
2019-05-02T12:33:22.332Z,38.53
2019-05-02T12:35:52.511Z,33.67
2019-05-02T12:38:22.925Z,35.73
2019-05-02T12:40:52.026Z,32.07
2019-05-02T12:43:22.763Z,34.87
2019-05-02T12:45:52.235Z,34.00
2019-05-02T12:48:22.016Z,30.33
2019-05-02T12:50:52.606Z,28.77
2019-05-02T12:53:21.965Z,31.83
2019-05-02T12:55:52.529Z,35.47
2019-05-02T12:58:21.896Z,31.43
2019-05-02T13:00:50.358Z,30.17
2019-05-02T13:03:36.886Z,30.83
2019-05-02T13:06:05.392Z,30.20
2019-05-02T13:08:35.593Z,31.60
2019-05-02T13:11:06.930Z,30.37
2019-05-02T13:13:35.555Z,34.67
2019-05-02T13:16:04.245Z,30.57
2019-05-02T13:18:36.922Z,34.03
2019-05-02T13:21:08.019Z,36.10
2019-05-02T13:23:38.768Z,32.27
2019-05-02T13:26:18.442Z,29.00
2019-05-02T13:28:37.625Z,29.63
2019-05-02T13:31:07.647Z,30.10
2019-05-02T13:33:54.418Z,32.07
2019-05-02T13:36:53.007Z,27.93
2019-05-02T13:39:39.732Z,28.53
2019-05-02T13:42:08.360Z,32.60
2019-05-02T13:44:47.151Z,25.77
2019-05-02T13:47:17.203Z,29.53
2019-05-02T13:49:54.043Z,30.40
2019-05-02T13:52:15.634Z,24.33
2019-05-02T13:54:44.094Z,27.50
2019-05-02T13:57:12.491Z,27.60
2019-05-02T13:59:41.698Z,22.27
2019-05-02T14:02:31.646Z,25.10
2019-05-02T14:05:02.090Z,23.80
2019-05-02T14:07:32.473Z,22.80
2019-05-02T14:10:02.516Z,19.50
2019-05-02T14:12:47.636Z,21.53
2019-05-02T14:15:21.925Z,20.30
2019-05-02T14:17:49.551Z,18.30
2019-05-02T14:20:19.175Z,15.47
2019-05-02T14:22:47.562Z,18.50
2019-05-02T14:25:15.963Z,15.13
2019-05-02T14:27:47.019Z,14.03
2019-05-02T14:30:14.511Z,16.73
2019-05-02T14:32:42.923Z,16.03
2019-05-02T14:35:13.422Z,13.60
2019-05-02T14:37:42.178Z,15.67
2019-05-02T14:40:17.922Z,16.10
2019-05-02T14:42:46.316Z,14.03
2019-05-02T14:45:27.178Z,16.57
2019-05-02T14:47:49.612Z,10.90
2019-05-02T14:50:26.067Z,12.60
2019-05-02T14:52:45.794Z,9.83
2019-05-02T14:55:17.070Z,12.30
2019-05-02T14:57:44.846Z,13.57
2019-05-02T15:00:13.555Z,13.80
2019-05-02T15:02:47.167Z,11.43
2019-05-02T15:05:13.495Z,13.53
2019-05-02T15:07:42.141Z,10.23
2019-05-02T15:10:12.507Z,10.27
2019-05-02T15:12:41.952Z,8.87
2019-05-02T15:15:12.315Z,9.00
2019-05-02T15:17:42.052Z,14.47
2019-05-02T15:20:10.515Z,14.43
2019-05-02T15:22:38.919Z,10.03
2019-05-02T15:25:12.172Z,11.30
2019-05-02T15:27:42.027Z,14.07
2019-05-02T15:30:07.902Z,7.53
2019-05-02T15:32:44.780Z,10.53
2019-05-02T15:35:26.822Z,9.07
2019-05-02T15:37:56.524Z,16.07
2019-05-02T15:40:32.548Z,12.80
2019-05-02T15:42:56.622Z,11.87
2019-05-02T15:45:25.431Z,15.03
2019-05-02T15:47:53.811Z,11.80
2019-05-02T15:50:25.526Z,12.50
2019-05-02T15:52:57.215Z,12.17
2019-05-02T15:55:23.966Z,11.87
2019-05-02T15:57:53.817Z,11.13
2019-05-02T16:00:32.713Z,13.53
2019-05-02T16:03:04.255Z,11.33
2019-05-02T16:05:31.991Z,10.40
2019-05-02T16:08:08.395Z,7.37
2019-05-02T16:10:31.620Z,9.03
2019-05-02T16:13:00.791Z,10.70
2019-05-02T16:15:29.181Z,9.43
2019-05-02T16:18:03.887Z,7.03
2019-05-02T16:20:49.114Z,6.53
2019-05-02T16:23:19.481Z,10.63
2019-05-02T16:25:47.176Z,6.40
2019-05-02T16:28:15.618Z,5.83
2019-05-02T16:30:47.626Z,7.53
2019-05-02T16:33:19.539Z,10.10
2019-05-02T16:35:46.291Z,5.93
2019-05-02T16:38:15.771Z,7.07
2019-05-02T16:40:44.182Z,8.87
2019-05-02T16:43:12.596Z,7.50
2019-05-02T16:45:41.710Z,8.27
2019-05-02T16:48:11.985Z,6.40
2019-05-02T16:50:42.082Z,8.90
2019-05-02T16:53:11.676Z,4.77
2019-05-02T16:55:43.417Z,5.77
2019-05-02T16:58:11.836Z,4.43
2019-05-02T17:00:42.563Z,6.03
2019-05-02T17:03:10.375Z,6.37
2019-05-02T17:05:39.310Z,6.70
2019-05-02T17:08:19.821Z,7.43
2019-05-02T17:10:55.130Z,5.93
2019-05-02T17:13:17.964Z,9.50
2019-05-02T17:15:46.376Z,4.20
2019-05-02T17:18:18.021Z,4.77
2019-05-02T17:20:46.919Z,7.30
2019-05-02T17:23:14.883Z,6.13
2019-05-02T17:25:43.266Z,4.83
2019-05-02T17:28:13.218Z,7.83
2019-05-02T17:30:43.044Z,7.87
2019-05-02T17:33:14.374Z,6.93
2019-05-02T17:35:49.226Z,7.20
2019-05-02T17:38:12.076Z,5.07
2019-05-02T17:40:42.229Z,8.30
2019-05-02T17:43:10.713Z,6.33
2019-05-02T17:45:40.280Z,5.00
2019-05-02T17:48:15.710Z,9.33
2019-05-02T17:50:55.922Z,8.80
2019-05-02T17:53:22.407Z,4.47
2019-05-02T17:55:52.474Z,7.60
2019-05-02T17:58:20.425Z,6.63
2019-05-02T18:00:54.503Z,4.27
2019-05-02T18:03:24.247Z,5.23
2019-05-02T18:05:52.758Z,5.77
2019-05-02T18:08:21.878Z,5.70
2019-05-02T18:10:50.617Z,5.90
2019-05-02T18:13:20.446Z,6.63
2019-05-02T18:15:48.814Z,4.83
2019-05-02T18:18:17.222Z,7.13
2019-05-02T18:20:46.605Z,7.77
2019-05-02T18:23:18.660Z,6.23
2019-05-02T18:25:45.180Z,10.20
2019-05-02T18:28:21.514Z,8.33
2019-05-02T18:30:43.638Z,6.17
2019-05-02T18:33:12.148Z,5.43
2019-05-02T18:35:43.036Z,5.73
2019-05-02T18:38:10.725Z,8.60
2019-05-02T18:40:39.121Z,4.20
2019-05-02T18:43:07.516Z,9.63
2019-05-02T18:45:35.920Z,8.77
2019-05-02T18:48:06.648Z,8.07
2019-05-02T18:50:44.429Z,7.10
2019-05-02T18:53:09.832Z,10.03
2019-05-02T18:55:38.285Z,6.63
2019-05-02T18:58:07.121Z,7.20
2019-05-02T19:00:39.542Z,8.77
2019-05-02T19:03:12.028Z,5.87
2019-05-02T19:05:37.404Z,6.40
2019-05-02T19:08:05.776Z,6.50
2019-05-02T19:10:37.098Z,5.23
2019-05-02T19:13:05.990Z,5.33
2019-05-02T19:15:34.874Z,4.00
2019-05-02T19:18:10.615Z,5.60
2019-05-02T19:20:51.537Z,5.23
2019-05-02T19:23:13.951Z,2.10
2019-05-02T19:25:42.381Z,5.00
2019-05-02T19:28:23.153Z,5.77
2019-05-02T19:30:52.036Z,4.40
2019-05-02T19:33:21.633Z,3.90
2019-05-02T19:35:52.446Z,3.00
2019-05-02T19:38:24.778Z,4.87
2019-05-02T19:40:52.347Z,5.27
2019-05-02T19:43:22.910Z,7.17
2019-05-02T19:45:53.946Z,4.33
2019-05-02T19:48:22.739Z,6.20
2019-05-02T19:50:51.806Z,8.73
2019-05-02T19:53:20.393Z,8.57
2019-05-02T19:55:48.819Z,9.80
2019-05-02T19:58:17.229Z,7.93
2019-05-02T20:00:46.385Z,8.40
2019-05-02T20:03:21.527Z,9.53
2019-05-02T20:05:44.991Z,10.93
2019-05-02T20:08:14.790Z,11.40
2019-05-02T20:10:43.487Z,6.37
2019-05-02T20:13:12.225Z,7.73
2019-05-02T20:15:45.196Z,9.93
2019-05-02T20:18:13.613Z,10.07
2019-05-02T20:20:51.863Z,8.10
2019-05-02T20:23:28.380Z,11.97
2019-05-02T20:25:52.135Z,7.27
2019-05-02T20:28:21.845Z,6.03
2019-05-02T20:30:50.153Z,10.97
2019-05-02T20:33:18.568Z,6.10
2019-05-02T20:35:46.960Z,13.43
2019-05-02T20:38:15.455Z,10.17
2019-05-02T20:40:43.884Z,8.80
2019-05-02T20:43:12.309Z,11.70
2019-05-02T20:45:40.753Z,8.90
2019-05-02T20:48:09.166Z,9.93
2019-05-02T20:50:37.628Z,9.13
2019-05-02T20:53:06.045Z,9.73
2019-05-02T20:55:34.492Z,8.17
2019-05-02T20:58:02.903Z,14.03
2019-05-02T21:00:32.227Z,7.40
2019-05-02T21:03:02.661Z,10.50
2019-05-02T21:05:51.941Z,6.40
2019-05-02T21:08:22.084Z,9.67
2019-05-02T21:10:52.332Z,6.00
2019-05-02T21:13:22.082Z,9.23
2019-05-02T21:15:52.411Z,11.70
2019-05-02T21:18:22.096Z,7.77
2019-05-02T21:20:52.500Z,12.20
2019-05-02T21:23:21.884Z,8.00
2019-05-02T21:25:52.362Z,11.37
2019-05-02T21:28:22.539Z,14.67
2019-05-02T21:30:52.207Z,11.17
2019-05-02T21:33:38.092Z,11.03
2019-05-02T21:36:06.731Z,12.37
2019-05-02T21:38:35.231Z,10.27
2019-05-02T21:41:05.326Z,9.63
2019-05-02T21:43:33.747Z,14.23
2019-05-02T21:46:02.418Z,11.20
2019-05-02T21:48:32.654Z,15.13
2019-05-02T21:51:02.855Z,8.73
2019-05-02T21:53:35.873Z,12.50
2019-05-02T21:56:08.789Z,7.03
2019-05-02T21:58:37.199Z,7.30
2019-05-02T22:01:07.236Z,8.43
2019-05-02T22:03:36.026Z,9.33
2019-05-02T22:06:04.937Z,11.17
2019-05-02T22:08:33.363Z,6.80
2019-05-02T22:11:01.765Z,9.17
2019-05-02T22:13:31.587Z,7.73
2019-05-02T22:16:02.194Z,6.50
2019-05-02T22:18:31.796Z,9.37
2019-05-02T22:21:01.679Z,9.63
2019-05-02T22:23:31.863Z,9.37
2019-05-02T22:26:01.979Z,9.03
2019-05-02T22:28:32.540Z,10.97
2019-05-02T22:31:03.024Z,9.73
2019-05-02T22:33:32.679Z,10.00
2019-05-02T22:36:01.920Z,5.47
2019-05-02T22:38:50.304Z,12.27
2019-05-02T22:41:19.307Z,6.53
2019-05-02T22:43:47.731Z,11.73
2019-05-02T22:46:17.802Z,9.20
2019-05-02T22:48:46.247Z,10.90
2019-05-02T22:51:14.732Z,8.93
2019-05-02T22:53:43.184Z,7.33
2019-05-02T22:56:13.386Z,9.60
2019-05-02T22:58:42.109Z,9.60
2019-05-02T23:01:10.601Z,16.43
2019-05-02T23:03:39.027Z,9.17
2019-05-02T23:06:07.481Z,11.80
2019-05-02T23:08:35.884Z,15.73
2019-05-02T23:11:04.328Z,10.03
2019-05-02T23:13:32.764Z,13.80
2019-05-02T23:16:02.901Z,8.00
2019-05-02T23:18:32.371Z,9.70
2019-05-02T23:21:02.135Z,10.17
2019-05-02T23:23:32.590Z,7.80
2019-05-02T23:26:05.215Z,11.07
2019-05-02T23:28:35.293Z,8.90
2019-05-02T23:31:03.782Z,6.43
2019-05-02T23:33:51.642Z,12.33
2019-05-02T23:36:20.131Z,12.00
2019-05-02T23:38:48.551Z,8.23
2019-05-02T23:41:17.027Z,9.97
2019-05-02T23:43:45.511Z,9.43
2019-05-02T23:46:14.005Z,9.83
2019-05-02T23:48:42.460Z,9.57
2019-05-02T23:51:12.110Z,9.77
2019-05-02T23:53:42.218Z,9.50
2019-05-02T23:56:13.022Z,8.50
2019-05-02T23:58:42.571Z,12.40
